Armstrong, Missouri
Current Conditions -  °F | °C
As of 12:55 PM on Friday 21 Nov 2014 (Local Time) from KVER Reporting Station
Overcast Overcast  
Wind Chill: 34°   Ceiling: 2200
Heat Index: 41°   Visibility: 10mi
Dew Point: 21°   Wind: 12mph
Humidity: 45%   Direction: 130°SE
Pressure: 30.23"   Gusts: NA
Location:  39.27°N, 92.7°W
Report Text: KVER 211855Z AUTO 13010KT 10SM BKN022 OVC028 05/M06 A3023 RMK AO2 T00491062
Loading
Personal Weather Stations






























Interactive Weather Map New forecast layout! Learn more

10-Day Weather Forecast

Advertisements
Track Severe Weather on mobile